Terminal Aerodrome Forecast
Issued by NWS

Home | Current Version | Previous Version | Text Only | Print | Product List | Glossary On
Versions: 1 2 3 4 5 6 7 8 9 10 11 12 13 14 15 16 17 18 19 20 21 22 23 24 25 26 27 28 29
982
FTUS42 KJAX 272325
TAFCRG
TAF
KCRG 272325Z 2800/2824 18005KT P6SM VCTS SCT045CB
     FM280300 VRB03KT P6SM SCT040 BKN100
     FM281500 27008KT P6SM VCTS SCT045CB
     FM282100 21008KT P6SM SCT250 PROB30 2821/2824 P6SM TS BKN050CB=

USA.gov is the U.S. government's official web portal to all federal, state and local government web resources and services.